Time;durP1;ratioP1;P1;durP2;ratioP2;P2;SDS_P1;SDS_P2;PMS_P1;PMS_P2;Temp;Humidity;BMP_temperature;BMP_pressure;BME280_temperature;BME280_humidity;BME280_pressure;Samples;Min_cycle;Max_cycle;Signal;HPM_P1;HPM_P2
2022/09/29 00:07:23;;;;;;;5.50;4.00;;;;;;;22.34;56.67;98850.72;20652289;28;20054;-71
2022/09/29 00:17:23;;;;;;;5.78;3.85;;;;;;;22.30;57.08;98847.59;20662697;28;20449;-72
2022/09/29 00:27:24;;;;;;;4.25;3.55;;;;;;;22.33;57.02;98854.34;20650867;28;20043;-72
2022/09/29 00:37:24;;;;;;;4.63;3.25;;;;;;;22.32;56.88;98842.16;20673058;28;20070;-72
2022/09/29 00:47:26;;;;;;;5.43;3.90;;;;;;;22.28;57.28;98844.28;20679640;28;20046;-72
2022/09/29 00:57:36;;;;;;;4.35;3.45;;;;;;;22.28;57.23;98841.66;20668602;28;21025;-72
2022/09/29 01:07:38;;;;;;;4.18;3.25;;;;;;;22.27;57.26;98833.91;20672969;28;20046;-72
2022/09/29 01:17:38;;;;;;;4.10;3.45;;;;;;;22.27;57.08;98837.34;20670138;28;20038;-72
2022/09/29 01:28:06;;;;;;;3.80;3.15;;;;;;;22.29;57.21;98826.63;20675416;28;20046;-73
2022/09/29 01:38:23;;;;;;;3.40;2.90;;;;;;;22.27;57.30;98813.63;20668974;28;20063;-72
2022/09/29 01:48:30;;;;;;;3.08;2.78;;;;;;;22.26;57.39;98817.25;20667413;28;20151;-72
2022/09/29 01:58:44;;;;;;;3.83;3.03;;;;;;;22.24;57.23;98800.78;20667141;28;20041;-71
2022/09/29 02:08:51;;;;;;;3.97;3.22;;;;;;;22.24;57.34;98806.06;20664341;28;20571;-71
2022/09/29 02:29:11;;;;;;;3.20;2.88;;;;;;;22.22;57.55;98800.13;20671322;28;20132;-71
2022/09/29 02:39:23;;;;;;;3.50;2.90;;;;;;;22.20;57.54;98810.00;20664817;28;20574;-72
2022/09/29 02:49:51;;;;;;;3.17;2.88;;;;;;;22.19;57.30;98824.16;20670262;28;20041;-73
2022/09/29 03:00:11;;;;;;;3.00;2.70;;;;;;;22.18;57.46;98831.25;20680133;28;20509;-72
2022/09/29 03:10:14;;;;;;;2.70;2.50;;;;;;;22.17;57.76;98840.16;20657249;28;20045;-72
2022/09/29 03:20:14;;;;;;;4.47;2.50;;;;;;;22.16;57.66;98838.50;20663388;28;20133;-72
2022/09/29 03:30:15;;;;;;;2.90;2.60;;;;;;;22.15;57.68;98833.41;20662291;28;20037;-73
2022/09/29 03:40:15;;;;;;;2.88;2.35;;;;;;;22.14;57.73;98827.31;20660468;28;20042;-72
2022/09/29 03:50:16;;;;;;;2.50;2.30;;;;;;;22.14;57.77;98813.28;20647346;28;20402;-72
2022/09/29 04:00:16;;;;;;;3.13;2.35;;;;;;;22.17;57.00;98810.34;20658629;28;20053;-71
2022/09/29 04:10:17;;;;;;;2.33;2.13;;;;;;;22.16;58.04;98793.69;20648811;28;20057;-71
2022/09/29 04:20:18;;;;;;;9.38;2.70;;;;;;;22.23;59.34;98797.31;20640400;28;20572;-71
2022/09/29 04:30:18;;;;;;;4.50;2.85;;;;;;;22.27;59.92;98787.25;20630565;28;20042;-72
2022/09/29 04:40:19;;;;;;;14.10;3.50;;;;;;;22.32;60.04;98776.22;20640783;28;20493;-71
2022/09/29 04:50:20;;;;;;;11.27;4.38;;;;;;;21.88;52.30;98798.44;20618104;28;20081;-72
2022/09/29 05:00:20;;;;;;;6.90;3.72;;;;;;;21.85;52.74;98804.84;20604887;28;20084;-73
2022/09/29 05:10:20;;;;;;;6.80;3.78;;;;;;;21.80;53.58;98795.78;20623910;28;20127;-76
2022/09/29 05:20:21;;;;;;;8.18;3.55;;;;;;;21.83;54.39;98798.91;20666418;28;20038;-77
2022/09/29 05:30:21;;;;;;;7.05;3.25;;;;;;;21.92;55.29;98794.47;20665369;28;20042;-77
2022/09/29 05:40:24;;;;;;;9.85;3.17;;;;;;;21.96;55.96;98794.97;20653929;28;20046;-77
2022/09/29 05:50:25;;;;;;;11.20;3.55;;;;;;;21.94;55.84;98810.97;20636614;28;20081;-73
2022/09/29 06:00:25;;;;;;;7.60;3.17;;;;;;;22.04;56.76;98818.72;20654653;28;20187;-73
2022/09/29 06:10:25;;;;;;;20.73;6.25;;;;;;;22.05;57.10;98828.28;20673210;28;20333;-75
2022/09/29 06:20:26;;;;;;;14.75;5.82;;;;;;;22.03;57.56;98843.41;20653660;28;20076;-75
2022/09/29 06:30:26;;;;;;;12.48;4.90;;;;;;;22.03;57.67;98852.16;20640159;28;20034;-74
2022/09/29 06:40:26;;;;;;;12.27;5.30;;;;;;;22.07;57.88;98855.31;20659260;28;21179;-75
2022/09/29 06:50:27;;;;;;;10.73;4.65;;;;;;;22.13;57.79;98859.94;20648516;28;20449;-74
2022/09/29 07:00:27;;;;;;;10.65;4.55;;;;;;;22.14;57.79;98876.56;20662082;28;20085;-74
2022/09/29 07:10:28;;;;;;;23.70;4.55;;;;;;;22.19;57.84;98879.53;20658777;28;20492;-76
2022/09/29 07:20:30;;;;;;;7.60;3.92;;;;;;;22.19;58.14;98869.81;20651394;28;20108;-74
2022/09/29 07:30:31;;;;;;;13.53;3.80;;;;;;;22.20;57.92;98891.72;20657452;28;20038;-72
2022/09/29 07:40:32;;;;;;;9.18;4.00;;;;;;;22.21;58.06;98899.47;20668850;28;20050;-74
2022/09/29 07:50:34;;;;;;;9.85;4.47;;;;;;;22.22;58.14;98914.31;20643941;28;20038;-75
2022/09/29 08:00:34;;;;;;;11.63;4.20;;;;;;;22.26;58.10;98917.44;20658326;28;20042;-75
2022/09/29 08:10:35;;;;;;;10.88;4.65;;;;;;;22.23;58.05;98933.59;20657706;28;20173;-75
2022/09/29 08:20:36;;;;;;;6.45;4.35;;;;;;;22.24;58.08;98927.34;20651352;28;20119;-75
2022/09/29 08:30:37;;;;;;;8.57;5.05;;;;;;;22.28;57.58;98930.50;20653238;28;21284;-73
2022/09/29 08:40:37;;;;;;;9.20;4.75;;;;;;;22.28;57.83;98933.13;20665565;28;20531;-74
2022/09/29 08:50:55;;;;;;;8.43;4.72;;;;;;;22.32;57.80;98948.44;20671822;28;20042;-74
2022/09/29 09:00:58;;;;;;;8.50;5.03;;;;;;;22.35;57.67;98955.19;20672431;28;20056;-74
2022/09/29 09:11:38;;;;;;;7.43;4.78;;;;;;;22.38;57.77;98957.56;20664244;28;20069;-75
2022/09/29 09:21:50;;;;;;;9.10;4.78;;;;;;;22.43;57.89;98978.19;20659143;28;20042;-75
2022/09/29 09:32:15;;;;;;;9.43;4.97;;;;;;;22.46;57.61;98962.84;20674040;28;22360;-75
2022/09/29 09:42:41;;;;;;;7.65;4.60;;;;;;;22.49;57.81;98985.44;20673913;28;20041;-75
2022/09/29 09:52:50;;;;;;;8.05;4.85;;;;;;;22.49;57.29;98980.16;20664976;28;20413;-75
2022/09/29 10:02:56;;;;;;;5.78;4.10;;;;;;;22.53;56.99;98997.31;20652828;28;20037;-74
2022/09/29 10:13:02;;;;;;;5.25;3.55;;;;;;;22.53;56.31;98969.13;20658934;28;20070;-75
2022/09/29 10:23:32;;;;;;;4.20;3.10;;;;;;;22.62;56.00;98992.88;20638104;28;20049;-75
2022/09/29 10:33:32;;;;;;;4.43;3.20;;;;;;;22.68;56.13;98979.06;20663418;28;20045;-74
2022/09/29 10:43:39;;;;;;;5.30;3.88;;;;;;;22.71;56.44;98984.00;20664627;28;20047;-73
2022/09/29 10:53:42;;;;;;;6.47;4.30;;;;;;;22.82;57.38;98993.41;20672905;28;20046;-73
2022/09/29 11:03:47;;;;;;;6.78;4.53;;;;;;;22.92;58.85;98993.25;20658052;28;20604;-73
2022/09/29 11:13:51;;;;;;;9.02;5.80;;;;;;;22.93;58.46;98993.06;20671143;28;20104;-74
2022/09/29 11:24:00;;;;;;;7.57;6.25;;;;;;;22.95;58.53;98992.91;20665453;28;20050;-74
2022/09/29 11:34:10;;;;;;;11.35;7.40;;;;;;;23.05;58.16;98992.78;20662663;28;20049;-72
2022/09/29 11:44:37;;;;;;;15.10;7.82;;;;;;;23.03;57.99;98995.56;20663723;28;20077;-73
2022/09/29 11:54:37;;;;;;;10.77;8.00;;;;;;;23.02;57.70;99004.47;20657500;28;20101;-70
2022/09/29 12:05:04;;;;;;;11.38;8.98;;;;;;;23.01;57.52;99014.22;20656295;28;20050;-71
2022/09/29 12:15:13;;;;;;;10.55;7.88;;;;;;;22.97;57.37;99023.47;20656566;28;20513;-73
2022/09/29 12:25:17;;;;;;;11.32;8.23;;;;;;;22.94;57.48;99029.03;20639433;28;20050;-72
2022/09/29 12:35:21;;;;;;;11.73;7.80;;;;;;;22.92;57.16;99025.75;20644096;28;20030;-72
2022/09/29 12:45:45;;;;;;;8.18;6.88;;;;;;;22.89;57.32;99025.22;20649058;28;21170;-73
2022/09/29 12:56:00;;;;;;;9.32;7.03;;;;;;;22.83;57.63;99046.03;20652263;28;20050;-73
2022/09/29 13:06:27;;;;;;;8.52;6.82;;;;;;;22.88;57.31;99056.09;20632710;28;20093;-74
2022/09/29 13:16:33;;;;;;;9.15;6.82;;;;;;;22.91;57.36;99045.22;20644779;28;20054;-74
2022/09/29 13:26:59;;;;;;;8.10;5.82;;;;;;;22.94;57.40;99055.44;20646471;28;20051;-73
2022/09/29 13:37:11;;;;;;;7.72;6.60;;;;;;;22.98;57.24;99043.56;20657343;28;20081;-77
2022/09/29 13:47:32;;;;;;;9.07;6.90;;;;;;;23.09;57.38;99046.88;20669085;28;20042;-74
2022/09/29 13:57:33;;;;;;;7.22;6.38;;;;;;;23.06;56.53;99069.16;20670508;28;20049;-74
2022/09/29 14:07:41;;;;;;;9.70;6.20;;;;;;;23.02;56.51;99058.09;20667479;28;20071;-73
2022/09/29 14:17:46;;;;;;;7.43;6.63;;;;;;;23.03;56.43;99066.84;20676177;28;20411;-75
2022/09/29 14:28:00;;;;;;;11.10;6.70;;;;;;;23.01;56.63;99080.22;20651312;28;20541;-75
2022/09/29 14:38:23;;;;;;;11.90;6.93;;;;;;;23.07;57.17;99075.25;20628605;28;20038;-76
2022/09/29 14:59:26;;;;;;;9.35;7.13;;;;;;;23.12;57.20;99107.28;20660770;28;20073;-75
2022/09/29 15:09:26;;;;;;;17.90;6.85;;;;;;;23.06;57.16;99102.63;20651966;28;20960;-75
2022/09/29 15:19:43;;;;;;;15.52;6.78;;;;;;;23.05;57.64;99103.66;20637599;28;20046;-74
2022/09/29 15:29:47;;;;;;;12.13;7.10;;;;;;;23.00;57.85;99112.06;20656146;28;20076;-74
2022/09/29 15:39:53;;;;;;;12.35;6.65;;;;;;;22.93;57.51;99111.84;20672224;28;20046;-75
2022/09/29 15:49:54;;;;;;;11.18;6.72;;;;;;;22.93;57.75;99121.59;20647639;28;20112;-74
2022/09/29 15:59:54;;;;;;;8.23;6.10;;;;;;;22.87;57.81;99117.78;20629023;28;20045;-75
2022/09/29 16:10:10;;;;;;;10.00;6.03;;;;;;;22.86;57.88;99155.72;20663126;28;20049;-74
2022/09/29 16:20:17;;;;;;;7.25;5.68;;;;;;;22.77;58.03;99156.69;20673742;28;20039;-74
2022/09/29 16:30:22;;;;;;;9.75;6.47;;;;;;;22.81;58.14;99161.50;20656621;28;20132;-75
2022/09/29 16:40:23;;;;;;;12.07;6.65;;;;;;;22.82;58.20;99167.59;20631692;28;20409;-71
2022/09/29 16:50:25;;;;;;;7.57;6.30;;;;;;;22.74;58.51;99168.41;20648535;28;20034;-74
2022/09/29 17:00:25;;;;;;;11.25;7.30;;;;;;;22.77;58.85;99165.44;20629928;28;20184;-73
2022/09/29 17:10:26;;;;;;;9.43;6.40;;;;;;;22.80;58.52;99159.00;20639121;28;20050;-72
2022/09/29 17:20:30;;;;;;;7.15;5.88;;;;;;;22.80;58.79;99157.19;20636983;28;20501;-73
2022/09/29 17:30:30;;;;;;;11.32;6.10;;;;;;;22.79;58.73;99175.81;20631980;28;20045;-72
2022/09/29 17:40:41;;;;;;;8.65;6.45;;;;;;;22.76;58.74;99184.88;20625031;28;20042;-72
2022/09/29 17:50:45;;;;;;;225.73;41.37;;;;;;;22.89;61.39;99189.72;20637553;28;20050;-72
2022/09/29 18:00:49;;;;;;;244.15;68.15;;;;;;;22.93;61.99;99206.88;20644278;28;20049;-72
2022/09/29 18:10:54;;;;;;;138.68;44.22;;;;;;;22.85;59.62;99204.22;20627697;28;20048;-73
2022/09/29 18:20:55;;;;;;;84.72;28.40;;;;;;;22.63;56.76;99218.78;20628179;28;20132;-75
2022/09/29 18:31:23;;;;;;;59.22;20.30;;;;;;;22.54;55.02;99226.69;20637027;28;20046;-74
2022/09/29 18:41:23;;;;;;;57.55;21.20;;;;;;;22.52;56.12;99240.97;20652590;28;20046;-77
2022/09/29 18:51:25;;;;;;;65.47;21.77;;;;;;;22.54;56.94;99255.69;20653621;28;20409;-76
2022/09/29 19:01:27;;;;;;;57.75;21.65;;;;;;;22.58;58.28;99276.47;20629978;28;20057;-76
2022/09/29 19:11:27;;;;;;;61.87;20.80;;;;;;;22.60;58.36;99293.00;20635155;28;20054;-75
2022/09/29 19:21:27;;;;;;;52.10;19.25;;;;;;;22.59;58.37;99310.63;20626985;28;20111;-73
2022/09/29 19:31:28;;;;;;;50.40;19.40;;;;;;;22.58;58.71;99306.31;20655479;28;20042;-74
2022/09/29 19:41:29;;;;;;;50.22;18.85;;;;;;;22.58;58.08;99308.13;20674650;28;20049;-74
2022/09/29 20:01:50;;;;;;;43.20;16.45;;;;;;;22.55;58.01;99317.19;20654135;28;20405;-75
2022/09/29 20:11:51;;;;;;;35.93;16.10;;;;;;;22.55;57.98;99296.09;20663849;28;20959;-74
2022/09/29 20:21:53;;;;;;;39.03;15.65;;;;;;;22.53;58.11;99313.88;20646888;28;20046;-74
2022/09/29 20:31:53;;;;;;;38.60;15.87;;;;;;;22.53;58.30;99350.81;20664088;28;21055;-74
2022/09/29 20:41:55;;;;;;;33.40;14.98;;;;;;;22.52;58.33;99346.50;20657411;28;20649;-74
2022/09/29 20:51:58;;;;;;;33.60;14.77;;;;;;;22.51;58.29;99329.03;20656653;28;20205;-74
2022/09/29 21:01:59;;;;;;;31.10;14.45;;;;;;;22.51;58.33;99358.06;20665534;28;20078;-75
2022/09/29 21:12:01;;;;;;;29.05;13.07;;;;;;;22.50;58.27;99369.59;20629088;28;20042;-74
2022/09/29 21:22:01;;;;;;;27.97;12.57;;;;;;;22.49;58.41;99386.41;20647895;28;20140;-75
2022/09/29 21:32:02;;;;;;;25.08;12.43;;;;;;;22.49;58.05;99415.41;20658746;28;20078;-74
2022/09/29 21:42:03;;;;;;;23.75;12.07;;;;;;;22.50;58.17;99518.13;20664830;28;20046;-74
2022/09/29 21:52:03;;;;;;;25.45;12.27;;;;;;;22.47;57.87;99428.75;20665035;28;20120;-74
2022/09/29 22:02:04;;;;;;;23.50;11.43;;;;;;;22.49;58.33;99389.84;20658016;28;20414;-74
2022/09/29 22:12:05;;;;;;;23.13;11.02;;;;;;;22.49;58.45;99391.66;20650759;28;20310;-73
2022/09/29 22:22:09;;;;;;;24.88;11.43;;;;;;;22.50;58.14;99383.59;20643422;28;20064;-74
2022/09/29 22:32:09;;;;;;;20.02;10.55;;;;;;;22.49;58.11;99367.94;20644333;28;21326;-74
2022/09/29 22:42:11;;;;;;;19.48;10.48;;;;;;;22.45;58.13;99367.41;20642448;28;20100;-74
2022/09/29 22:52:11;;;;;;;17.10;10.07;;;;;;;22.47;58.20;99385.72;20630972;28;20117;-74
2022/09/29 23:02:12;;;;;;;19.42;10.40;;;;;;;22.45;58.16;99383.22;20628398;28;20062;-74
2022/09/29 23:12:12;;;;;;;17.13;9.70;;;;;;;22.46;58.24;99428.88;20632336;28;20037;-74
2022/09/29 23:22:15;;;;;;;17.15;10.00;;;;;;;22.45;57.87;99428.06;20623757;28;20045;-74
2022/09/29 23:32:17;;;;;;;14.60;9.10;;;;;;;22.44;58.18;99463.34;20622496;28;20053;-75
2022/09/29 23:42:18;;;;;;;13.27;9.07;;;;;;;22.43;57.94;99492.50;20626037;28;20042;-75
2022/09/29 23:52:18;;;;;;;14.20;8.73;;;;;;;22.42;58.12;99518.03;20629272;28;20065;-74
